Terminal Aerodrome Forecast
Issued by NWS Louisville, KY

Home | Current Version | Previous Version | Text Only | Print | Product List | Glossary On
Versions: 1 2 3 4 5 6 7 8 9 10 11 12 13 14 15 16 17 18 19 20 21 22 23 24
000
FTUS43 KLMK 021000 AAB
TAFBWG
TAF AMD
KBWG 021033Z 0211/0306 VRB05KT 3SM -TSRA SCT010 BKN035CB
      TEMPO 0211/0215 1SM TSRA BR SCT005 BKN015CB
     FM021500 20008KT 6SM -SHRA BR BKN025 BKN100
     FM022100 23010KT 5SM SHRA VCTS SCT025CB BKN150
     FM030400 21007KT 5SM BR VCSH SCT010 BKN100=

USA.gov is the U.S. government's official web portal to all federal, state and local government web resources and services.